Time,TemperatureF,DewpointF,PressureIn,WindDirection,WindDirectionDegrees,WindSpeedMPH,WindSpeedGustMPH,Humidity,HourlyPrecipIn,Conditions,Clouds,dailyrainin,SolarRadiationWatts/m^2,SoftwareType,DateUTC
2013-06-09 00:02:00,65.0,65.0,-100.00,SE,144,0.0,0.0,99,0.00,,,0.00,0.000000,,2013-06-09 05:02:00,
2013-06-09 00:32:00,63.0,63.0,-100.00,SSW,195,1.0,2.0,100,0.00,,,0.00,0.000000,,2013-06-09 05:32:00,
2013-06-09 00:42:00,63.0,63.0,-100.00,SSW,195,1.0,2.0,100,0.00,,,0.00,0.000000,,2013-06-09 05:42:00,
2013-06-09 00:52:00,63.0,63.0,-100.00,SSW,195,1.0,2.0,100,0.00,,,0.00,0.000000,,2013-06-09 05:52:00,
2013-06-09 01:02:00,63.0,63.0,-100.00,SSW,195,1.0,2.0,100,0.00,,,0.00,0.000000,,2013-06-09 06:02:00,
2013-06-09 01:32:00,63.0,63.0,-100.00,South,174,0.0,2.0,100,0.00,,,0.00,0.000000,,2013-06-09 06:32:00,
2013-06-09 01:42:00,63.0,63.0,-100.00,South,174,0.0,2.0,100,0.00,,,0.00,0.000000,,2013-06-09 06:42:00,
2013-06-09 01:52:00,63.0,63.0,-100.00,South,174,0.0,2.0,100,0.00,,,0.00,0.000000,,2013-06-09 06:52:00,
2013-06-09 02:02:00,63.0,63.0,-100.00,South,174,0.0,2.0,100,0.00,,,0.00,0.000000,,2013-06-09 07:02:00,
2013-06-09 02:32:00,63.0,63.0,-100.00,South,177,1.0,2.0,100,0.00,,,0.00,0.000000,,2013-06-09 07:32:00,
2013-06-09 02:42:00,63.0,63.0,-100.00,South,177,1.0,2.0,100,0.00,,,0.00,0.000000,,2013-06-09 07:42:00,
2013-06-09 02:52:00,63.0,63.0,-100.00,South,177,1.0,2.0,100,0.00,,,0.00,0.000000,,2013-06-09 07:52:00,
2013-06-09 03:02:00,63.0,63.0,-100.00,South,177,1.0,2.0,100,0.00,,,0.00,0.000000,,2013-06-09 08:02:00,
2013-06-09 03:32:00,62.0,62.0,-100.00,SE,141,0.0,1.0,100,0.00,,,0.00,0.000000,,2013-06-09 08:32:00,
2013-06-09 03:42:00,62.0,62.0,-100.00,SE,141,0.0,1.0,100,0.00,,,0.00,0.000000,,2013-06-09 08:42:00,
2013-06-09 03:53:00,62.0,62.0,-100.00,SE,141,0.0,1.0,100,0.00,,,0.00,0.000000,,2013-06-09 08:53:00,
2013-06-09 04:02:00,62.0,62.0,-100.00,SE,141,0.0,1.0,100,0.00,,,0.00,0.000000,,2013-06-09 09:02:00,
2013-06-09 04:33:00,62.0,62.0,-100.00,SE,135,1.0,1.0,100,0.00,,,0.00,0.000000,,2013-06-09 09:33:00,
2013-06-09 04:43:00,62.0,62.0,-100.00,SE,135,1.0,1.0,100,0.00,,,0.00,0.000000,,2013-06-09 09:43:00,
2013-06-09 04:52:00,62.0,62.0,-100.00,SE,135,1.0,1.0,100,0.00,,,0.00,0.000000,,2013-06-09 09:52:00,
2013-06-09 05:03:00,62.0,62.0,-100.00,SE,135,1.0,1.0,100,0.00,,,0.00,0.000000,,2013-06-09 10:03:00,
2013-06-09 05:32:00,63.0,63.0,-100.00,ESE,119,1.0,2.0,100,0.00,,,0.00,0.000000,,2013-06-09 10:32:00,
2013-06-09 05:43:00,63.0,63.0,-100.00,ESE,119,1.0,2.0,100,0.00,,,0.00,0.000000,,2013-06-09 10:43:00,
2013-06-09 05:52:00,63.0,63.0,-100.00,ESE,119,1.0,2.0,100,0.00,,,0.00,0.000000,,2013-06-09 10:52:00,
2013-06-09 06:02:00,63.0,63.0,-100.00,ESE,119,1.0,2.0,100,0.00,,,0.00,0.000000,,2013-06-09 11:02:00,
2013-06-09 06:32:00,65.0,65.0,-100.00,SE,131,1.0,2.0,99,0.00,,,0.00,5.000000,,2013-06-09 11:32:00,
2013-06-09 06:42:00,65.0,65.0,-100.00,SE,131,1.0,2.0,99,0.00,,,0.00,5.000000,,2013-06-09 11:42:00,
2013-06-09 06:53:00,65.0,65.0,-100.00,SE,131,1.0,2.0,99,0.00,,,0.00,5.000000,,2013-06-09 11:53:00,
2013-06-09 07:02:00,65.0,65.0,-100.00,SE,131,1.0,2.0,99,0.00,,,0.00,5.000000,,2013-06-09 12:02:00,
2013-06-09 07:32:00,67.0,66.0,-100.00,ESE,102,1.0,2.0,95,0.00,,,0.00,50.000000,,2013-06-09 12:32:00,
2013-06-09 07:42:00,67.0,66.0,-100.00,ESE,102,1.0,2.0,95,0.00,,,0.00,50.000000,,2013-06-09 12:42:00,
2013-06-09 07:52:00,67.0,66.0,-100.00,ESE,102,1.0,2.0,95,0.00,,,0.00,50.000000,,2013-06-09 12:52:00,
2013-06-09 08:02:00,67.0,66.0,-100.00,ESE,102,1.0,2.0,95,0.00,,,0.00,50.000000,,2013-06-09 13:02:00,
2013-06-09 08:32:00,69.0,66.0,-100.00,SSW,202,2.0,7.0,90,0.08,,,0.08,108.000000,,2013-06-09 13:32:00,
2013-06-09 08:42:00,69.0,66.0,-100.00,SSW,202,2.0,7.0,90,0.08,,,0.08,108.000000,,2013-06-09 13:42:00,
2013-06-09 08:52:00,69.0,66.0,-100.00,SSW,202,2.0,7.0,90,0.08,,,0.08,108.000000,,2013-06-09 13:52:00,
2013-06-09 09:02:00,69.0,66.0,-100.00,SSW,202,2.0,7.0,90,0.08,,,0.08,108.000000,,2013-06-09 14:02:00,
2013-06-09 09:32:00,68.0,68.0,-100.00,SE,130,1.0,6.0,100,0.07,,,0.15,63.000000,,2013-06-09 14:32:00,
2013-06-09 09:43:00,68.0,68.0,-100.00,SE,130,1.0,6.0,100,0.07,,,0.15,63.000000,,2013-06-09 14:43:00,
2013-06-09 09:52:00,68.0,68.0,-100.00,SE,130,1.0,6.0,100,0.07,,,0.15,63.000000,,2013-06-09 14:52:00,
2013-06-09 10:02:00,68.0,68.0,-100.00,SE,130,1.0,6.0,100,0.07,,,0.15,63.000000,,2013-06-09 15:02:00,
2013-06-09 10:33:00,71.0,69.0,-100.00,NW,318,4.0,7.0,95,0.00,,,0.15,213.000000,,2013-06-09 15:33:00,
2013-06-09 10:43:00,71.0,69.0,-100.00,NW,318,4.0,7.0,95,0.00,,,0.15,213.000000,,2013-06-09 15:43:00,
2013-06-09 10:53:00,71.0,69.0,-100.00,NW,318,4.0,7.0,95,0.00,,,0.15,213.000000,,2013-06-09 15:53:00,
2013-06-09 11:03:00,71.0,69.0,-100.00,NW,318,4.0,7.0,95,0.00,,,0.15,213.000000,,2013-06-09 16:03:00,
2013-06-09 11:33:00,74.0,73.0,-100.00,NNE,29,2.0,5.0,97,0.00,,,0.15,235.000000,,2013-06-09 16:33:00,
2013-06-09 11:43:00,74.0,73.0,-100.00,NNE,29,2.0,5.0,97,0.00,,,0.15,235.000000,,2013-06-09 16:43:00,
2013-06-09 11:53:00,74.0,73.0,-100.00,NNE,29,2.0,5.0,97,0.00,,,0.15,235.000000,,2013-06-09 16:53:00,
2013-06-09 12:02:00,74.0,73.0,-100.00,NNE,29,2.0,5.0,97,0.00,,,0.15,235.000000,,2013-06-09 17:02:00,
2013-06-09 12:32:00,69.0,69.0,-100.00,SW,222,3.0,6.0,100,0.11,,,0.26,29.000000,,2013-06-09 17:32:00,
2013-06-09 12:42:00,69.0,69.0,-100.00,SW,222,3.0,6.0,100,0.11,,,0.26,29.000000,,2013-06-09 17:42:00,
2013-06-09 12:52:00,69.0,69.0,-100.00,SW,222,3.0,6.0,100,0.11,,,0.26,29.000000,,2013-06-09 17:52:00,
2013-06-09 13:02:00,69.0,69.0,-100.00,SW,222,3.0,6.0,100,0.11,,,0.26,29.000000,,2013-06-09 18:02:00,
2013-06-09 13:33:00,71.0,71.0,-100.00,South,178,2.0,4.0,100,0.10,,,0.36,151.000000,,2013-06-09 18:33:00,
2013-06-09 13:42:00,71.0,71.0,-100.00,South,178,2.0,4.0,100,0.10,,,0.36,151.000000,,2013-06-09 18:42:00,
2013-06-09 13:52:00,71.0,71.0,-100.00,South,178,2.0,4.0,100,0.10,,,0.36,151.000000,,2013-06-09 18:52:00,
2013-06-09 14:02:00,71.0,71.0,-100.00,South,178,2.0,4.0,100,0.10,,,0.36,151.000000,,2013-06-09 19:02:00,
2013-06-09 14:32:00,76.0,76.0,-100.00,SSW,192,3.0,7.0,99,0.00,,,0.36,446.000000,,2013-06-09 19:32:00,
2013-06-09 14:43:00,76.0,76.0,-100.00,SSW,192,3.0,7.0,99,0.00,,,0.36,446.000000,,2013-06-09 19:43:00,
2013-06-09 14:52:00,76.0,76.0,-100.00,SSW,192,3.0,7.0,99,0.00,,,0.36,446.000000,,2013-06-09 19:52:00,
2013-06-09 15:02:00,76.0,76.0,-100.00,SSW,192,3.0,7.0,99,0.00,,,0.36,446.000000,,2013-06-09 20:02:00,
2013-06-09 15:32:00,74.0,72.0,-100.00,South,188,4.0,10.0,95,0.00,,,0.36,394.000000,,2013-06-09 20:32:00,
2013-06-09 15:42:00,74.0,72.0,-100.00,South,188,4.0,10.0,95,0.00,,,0.36,394.000000,,2013-06-09 20:42:00,
2013-06-09 15:52:00,74.0,72.0,-100.00,South,188,4.0,10.0,95,0.00,,,0.36,394.000000,,2013-06-09 20:52:00,
2013-06-09 16:02:00,74.0,72.0,-100.00,South,188,4.0,10.0,95,0.00,,,0.36,394.000000,,2013-06-09 21:02:00,
2013-06-09 16:33:00,76.0,73.0,-100.00,South,191,4.0,10.0,89,0.00,,,0.36,413.000000,,2013-06-09 21:33:00,
2013-06-09 16:44:00,76.0,73.0,-100.00,South,191,4.0,10.0,89,0.00,,,0.36,413.000000,,2013-06-09 21:44:00,
2013-06-09 16:53:00,76.0,73.0,-100.00,South,191,4.0,10.0,89,0.00,,,0.36,413.000000,,2013-06-09 21:53:00,
2013-06-09 17:02:00,76.0,73.0,-100.00,South,191,4.0,10.0,89,0.00,,,0.36,413.000000,,2013-06-09 22:02:00,
2013-06-09 17:33:00,79.0,72.0,-100.00,SSW,197,4.0,10.0,79,0.00,,,0.36,555.000000,,2013-06-09 22:33:00,
2013-06-09 17:42:00,79.0,72.0,-100.00,SSW,197,4.0,10.0,79,0.00,,,0.36,555.000000,,2013-06-09 22:42:00,
2013-06-09 17:52:00,79.0,72.0,-100.00,SSW,197,4.0,10.0,79,0.00,,,0.36,555.000000,,2013-06-09 22:52:00,
2013-06-09 18:02:00,79.0,72.0,-100.00,SSW,197,4.0,10.0,79,0.00,,,0.36,555.000000,,2013-06-09 23:02:00,
2013-06-09 18:32:00,78.0,72.0,-100.00,South,180,3.0,8.0,83,0.00,,,0.36,351.000000,,2013-06-09 23:32:00,
2013-06-09 18:43:00,78.0,72.0,-100.00,South,180,3.0,8.0,83,0.00,,,0.36,351.000000,,2013-06-09 23:43:00,
2013-06-09 18:52:00,78.0,72.0,-100.00,South,180,3.0,8.0,83,0.00,,,0.36,351.000000,,2013-06-09 23:52:00,
2013-06-09 19:02:00,78.0,72.0,-100.00,South,180,3.0,8.0,83,0.00,,,0.36,351.000000,,2013-06-10 00:02:00,
2013-06-09 19:32:00,73.0,71.0,-100.00,South,171,2.0,9.0,94,0.00,,,0.36,124.000000,,2013-06-10 00:32:00,
2013-06-09 19:42:00,73.0,71.0,-100.00,South,171,2.0,9.0,94,0.00,,,0.36,124.000000,,2013-06-10 00:42:00,
2013-06-09 19:52:00,73.0,71.0,-100.00,South,171,2.0,9.0,94,0.00,,,0.36,124.000000,,2013-06-10 00:52:00,
2013-06-09 20:02:00,73.0,71.0,-100.00,South,171,2.0,9.0,94,0.00,,,0.36,124.000000,,2013-06-10 01:02:00,
2013-06-09 20:32:00,71.0,70.0,-100.00,South,181,4.0,9.0,98,0.00,,,0.36,13.000000,,2013-06-10 01:32:00,
2013-06-09 20:43:00,71.0,70.0,-100.00,South,181,4.0,9.0,98,0.00,,,0.36,13.000000,,2013-06-10 01:43:00,
2013-06-09 20:52:00,71.0,70.0,-100.00,South,181,4.0,9.0,98,0.00,,,0.36,13.000000,,2013-06-10 01:52:00,
2013-06-09 21:02:00,71.0,70.0,-100.00,South,181,4.0,9.0,98,0.00,,,0.36,13.000000,,2013-06-10 02:02:00,
2013-06-09 21:32:00,71.0,70.0,-100.00,South,178,2.0,10.0,97,0.00,,,0.36,0.000000,,2013-06-10 02:32:00,
2013-06-09 21:42:00,71.0,70.0,-100.00,South,178,2.0,10.0,97,0.00,,,0.36,0.000000,,2013-06-10 02:42:00,
2013-06-09 21:52:00,71.0,70.0,-100.00,South,178,2.0,10.0,97,0.00,,,0.36,0.000000,,2013-06-10 02:52:00,
2013-06-09 22:02:00,71.0,70.0,-100.00,South,178,2.0,10.0,97,0.00,,,0.36,0.000000,,2013-06-10 03:02:00,
2013-06-09 22:33:00,70.0,69.0,-100.00,South,190,3.0,11.0,97,0.00,,,0.36,0.000000,,2013-06-10 03:33:00,
2013-06-09 22:43:00,70.0,69.0,-100.00,South,190,3.0,11.0,97,0.00,,,0.36,0.000000,,2013-06-10 03:43:00,
2013-06-09 22:53:00,70.0,69.0,-100.00,South,190,3.0,11.0,97,0.00,,,0.36,0.000000,,2013-06-10 03:53:00,
2013-06-09 23:03:00,70.0,69.0,-100.00,South,190,3.0,11.0,97,0.00,,,0.36,0.000000,,2013-06-10 04:03:00,
2013-06-09 23:33:00,70.0,70.0,-100.00,South,180,3.0,9.0,100,0.00,,,0.36,0.000000,,2013-06-10 04:33:00,
2013-06-09 23:42:00,70.0,70.0,-100.00,South,180,3.0,9.0,100,0.00,,,0.36,0.000000,,2013-06-10 04:42:00,
2013-06-09 23:53:00,70.0,70.0,-100.00,South,180,3.0,9.0,100,0.00,,,0.36,0.000000,,2013-06-10 04:53:00,